createdAt,value
2018-04-06T00:01:17.092Z,13.83
2018-04-06T00:03:21.114Z,17.17
2018-04-06T00:05:25.121Z,11.17
2018-04-06T00:07:29.165Z,16.73
2018-04-06T00:09:33.172Z,13.30
2018-04-06T00:11:37.249Z,16.70
2018-04-06T00:13:41.294Z,16.17
2018-04-06T00:15:45.351Z,14.13
2018-04-06T00:17:49.396Z,8.20
2018-04-06T00:19:53.401Z,18.00
2018-04-06T00:21:57.407Z,20.37
2018-04-06T00:24:01.468Z,18.43
2018-04-06T00:26:05.511Z,19.70
2018-04-06T00:28:09.534Z,10.27
2018-04-06T00:30:13.549Z,11.30
2018-04-06T00:32:17.570Z,16.47
2018-04-06T00:34:21.609Z,21.00
2018-04-06T00:36:27.069Z,15.90
2018-04-06T00:38:31.136Z,15.00
2018-04-06T00:40:35.167Z,18.77
2018-04-06T00:42:39.206Z,11.83
2018-04-06T00:44:43.283Z,19.83
2018-04-06T00:46:47.298Z,12.67
2018-04-06T00:48:51.336Z,13.77
2018-04-06T00:50:55.335Z,12.70
2018-04-06T00:52:59.350Z,13.00
2018-04-06T00:55:03.406Z,17.77
2018-04-06T00:57:07.426Z,18.17
2018-04-06T00:59:11.459Z,20.03
2018-04-06T01:01:15.487Z,17.13
2018-04-06T01:03:19.483Z,8.90
2018-04-06T01:05:23.525Z,15.40
2018-04-06T01:07:27.543Z,12.07
2018-04-06T01:09:31.567Z,24.07
2018-04-06T01:11:35.596Z,27.20
2018-04-06T01:13:40.108Z,20.50
2018-04-06T01:15:44.146Z,14.60
2018-04-06T01:17:48.163Z,11.60
2018-04-06T01:19:52.225Z,15.43
2018-04-06T01:21:56.233Z,15.90
2018-04-06T01:24:00.249Z,12.43
2018-04-06T01:26:04.313Z,19.53
2018-04-06T01:28:08.319Z,16.97
2018-04-06T01:30:12.335Z,17.03
2018-04-06T01:32:16.377Z,24.57
2018-04-06T01:34:20.411Z,13.33
2018-04-06T01:36:24.443Z,17.13
2018-04-06T01:38:28.460Z,17.73
2018-04-06T01:40:32.478Z,16.23
2018-04-06T01:42:36.607Z,15.43
2018-04-06T01:44:40.645Z,15.43
2018-04-06T01:46:44.685Z,17.70
2018-04-06T01:48:48.715Z,17.77
2018-04-06T01:50:52.716Z,23.87
2018-04-06T01:52:56.759Z,16.93
2018-04-06T01:55:00.777Z,15.60
2018-04-06T01:57:04.831Z,17.03
2018-04-06T01:59:08.848Z,14.50
2018-04-06T02:01:12.880Z,14.60
2018-04-06T02:03:16.921Z,18.10
2018-04-06T02:05:20.954Z,13.80
2018-04-06T02:07:24.985Z,11.80
2018-04-06T02:09:28.992Z,21.63
2018-04-06T02:11:33.008Z,10.10
2018-04-06T02:13:37.058Z,16.30
2018-04-06T02:15:41.088Z,11.27
2018-04-06T02:17:45.133Z,15.37
2018-04-06T02:19:49.141Z,17.80
2018-04-06T02:21:53.164Z,16.60
2018-04-06T02:23:57.205Z,19.53
2018-04-06T02:26:01.223Z,20.63
2018-04-06T02:28:05.271Z,15.53
2018-04-06T02:30:09.316Z,17.20
2018-04-06T02:32:13.335Z,22.87
2018-04-06T02:34:17.366Z,22.40
2018-04-06T02:36:21.365Z,13.90
2018-04-06T02:38:25.406Z,11.37
2018-04-06T02:40:29.456Z,11.13
2018-04-06T02:42:33.467Z,11.27
2018-04-06T02:44:37.509Z,15.07
2018-04-06T02:46:41.538Z,18.97
2018-04-06T02:48:45.579Z,26.50
2018-04-06T02:50:49.593Z,13.27
2018-04-06T02:52:53.613Z,13.80
2018-04-06T02:54:57.675Z,21.50
2018-04-06T02:57:01.699Z,15.77
2018-04-06T02:59:05.752Z,13.37
2018-04-06T03:01:09.792Z,20.50
2018-04-06T03:03:13.812Z,17.50
2018-04-06T03:05:17.856Z,24.67
2018-04-06T03:07:21.855Z,15.77
2018-04-06T03:09:25.876Z,19.00
2018-04-06T03:11:29.883Z,19.73
2018-04-06T03:13:33.897Z,21.80
2018-04-06T03:15:37.941Z,16.57
2018-04-06T03:17:41.975Z,19.90
2018-04-06T03:19:46.025Z,24.60
2018-04-06T03:21:50.040Z,16.83
2018-04-06T03:23:54.067Z,10.20
2018-04-06T03:25:58.109Z,13.97
2018-04-06T03:28:02.139Z,20.33
2018-04-06T03:30:06.164Z,17.13
2018-04-06T03:32:10.187Z,18.73
2018-04-06T03:34:14.198Z,8.83
2018-04-06T03:36:18.220Z,15.43
2018-04-06T03:38:22.233Z,16.10
2018-04-06T03:40:26.274Z,12.70
2018-04-06T03:42:30.317Z,15.70
2018-04-06T03:44:34.389Z,17.77
2018-04-06T03:46:38.451Z,16.20
2018-04-06T03:48:42.497Z,13.00
2018-04-06T03:50:46.545Z,14.77
2018-04-06T03:52:50.564Z,19.93
2018-04-06T03:54:54.611Z,12.20
2018-04-06T03:56:59.707Z,20.70
2018-04-06T03:59:03.743Z,18.83
2018-04-06T04:01:07.738Z,16.17
2018-04-06T04:03:11.803Z,14.73
2018-04-06T04:05:15.839Z,19.00
2018-04-06T04:07:19.883Z,16.30
2018-04-06T04:09:23.891Z,19.90
2018-04-06T04:11:27.924Z,10.43
2018-04-06T04:13:31.976Z,16.93
2018-04-06T04:15:35.984Z,18.97
2018-04-06T04:17:40.039Z,13.90
2018-04-06T04:19:44.040Z,16.40
2018-04-06T04:21:48.059Z,15.27
2018-04-06T04:23:52.133Z,17.37
2018-04-06T04:25:56.145Z,18.37
2018-04-06T04:28:00.264Z,30.20
2018-04-06T04:30:04.291Z,19.40
2018-04-06T04:32:08.323Z,20.13
2018-04-06T04:34:12.358Z,22.30
2018-04-06T04:36:16.367Z,23.00
2018-04-06T04:38:20.449Z,22.00
2018-04-06T04:40:24.480Z,18.93
2018-04-06T04:42:28.529Z,19.17
2018-04-06T04:44:32.571Z,10.77
2018-04-06T04:46:36.596Z,15.90
2018-04-06T04:48:40.629Z,20.07
2018-04-06T04:50:44.644Z,12.77
2018-04-06T04:52:48.705Z,19.60
2018-04-06T04:54:52.753Z,11.77
2018-04-06T04:56:56.773Z,16.40
2018-04-06T04:59:00.839Z,16.23
2018-04-06T05:01:04.858Z,17.63
2018-04-06T05:03:08.932Z,13.80
2018-04-06T05:05:12.972Z,17.87
2018-04-06T05:07:17.003Z,21.10
2018-04-06T05:09:21.044Z,15.83
2018-04-06T05:11:25.076Z,15.40
2018-04-06T05:13:29.110Z,12.83
2018-04-06T05:15:33.150Z,15.37
2018-04-06T05:17:37.204Z,16.93
2018-04-06T05:19:41.292Z,21.63
2018-04-06T05:21:45.333Z,20.80
2018-04-06T05:23:49.378Z,14.60
2018-04-06T05:25:53.388Z,15.00
2018-04-06T05:27:57.413Z,20.87
2018-04-06T05:30:01.444Z,13.20
2018-04-06T05:32:05.451Z,20.70
2018-04-06T05:34:09.503Z,18.40
2018-04-06T05:36:13.499Z,17.57
2018-04-06T05:38:17.508Z,17.53
2018-04-06T05:40:21.554Z,17.50
2018-04-06T05:42:25.639Z,33.10
2018-04-06T05:44:29.706Z,19.37
2018-04-06T05:46:33.721Z,16.37
2018-04-06T05:48:37.750Z,14.80
2018-04-06T05:50:41.802Z,13.10
2018-04-06T05:52:45.813Z,10.47
2018-04-06T05:54:49.862Z,19.00
2018-04-06T05:56:53.993Z,20.73
2018-04-06T05:58:58.014Z,17.00
2018-04-06T06:01:02.079Z,14.67
2018-04-06T06:03:06.101Z,19.07
2018-04-06T06:05:10.128Z,13.80
2018-04-06T06:07:14.196Z,14.37
2018-04-06T06:09:18.217Z,11.80
2018-04-06T06:11:22.286Z,16.37
2018-04-06T06:13:26.294Z,19.73
2018-04-06T06:15:30.304Z,15.30
2018-04-06T06:17:34.346Z,15.93
2018-04-06T06:19:38.362Z,12.07
2018-04-06T06:21:43.079Z,13.40
2018-04-06T06:23:47.075Z,10.43
2018-04-06T06:25:51.142Z,16.63
2018-04-06T06:27:55.199Z,17.43
2018-04-06T06:29:59.214Z,13.40
2018-04-06T06:32:03.235Z,13.80
2018-04-06T06:34:07.279Z,15.33
2018-04-06T06:36:11.311Z,9.93
2018-04-06T06:38:15.357Z,9.33
2018-04-06T06:40:19.374Z,14.97
2018-04-06T06:42:23.420Z,17.13
2018-04-06T06:44:27.452Z,14.37
2018-04-06T06:46:31.479Z,14.80
2018-04-06T06:48:35.545Z,14.03
2018-04-06T06:50:39.571Z,11.63
2018-04-06T06:52:43.606Z,17.13
2018-04-06T06:54:47.610Z,19.00
2018-04-06T06:56:51.630Z,14.77
2018-04-06T06:58:55.668Z,16.33
2018-04-06T07:00:59.754Z,14.37
2018-04-06T07:03:03.773Z,16.87
2018-04-06T07:05:07.801Z,12.00
2018-04-06T07:07:11.813Z,18.53
2018-04-06T07:09:15.889Z,12.73
2018-04-06T07:11:19.901Z,13.60
2018-04-06T07:13:23.952Z,13.90
2018-04-06T07:15:27.951Z,9.80
2018-04-06T07:17:31.939Z,15.50
2018-04-06T07:19:35.993Z,15.00
2018-04-06T07:21:40.048Z,15.10
2018-04-06T07:23:44.100Z,15.93
2018-04-06T07:25:48.129Z,15.50
2018-04-06T07:27:52.141Z,15.90
2018-04-06T07:29:56.182Z,23.00
2018-04-06T07:32:00.179Z,14.60
2018-04-06T07:34:04.241Z,13.10
2018-04-06T07:36:08.275Z,16.97
2018-04-06T07:38:12.302Z,14.00
2018-04-06T07:40:16.364Z,16.33
2018-04-06T07:42:20.373Z,15.50
2018-04-06T07:46:53.235Z,15.07
2018-04-06T07:48:57.243Z,14.17
2018-04-06T07:51:01.286Z,16.37
2018-04-06T07:53:05.298Z,16.77
2018-04-06T07:55:09.319Z,17.33
2018-04-06T07:57:13.349Z,15.57
2018-04-06T07:59:17.388Z,17.50
2018-04-06T08:01:21.452Z,13.50
2018-04-06T08:03:25.489Z,13.37
2018-04-06T08:05:29.568Z,13.77
2018-04-06T08:07:33.579Z,14.43
2018-04-06T08:09:37.597Z,15.80
2018-04-06T08:11:41.641Z,18.10
2018-04-06T08:13:45.681Z,13.73
2018-04-06T08:15:49.704Z,12.40
2018-04-06T08:17:53.744Z,16.30
2018-04-06T08:19:57.772Z,24.80
2018-04-06T08:22:01.848Z,13.80
2018-04-06T08:24:05.894Z,19.43
2018-04-06T08:26:09.932Z,13.67
2018-04-06T08:28:13.960Z,15.80
2018-04-06T08:30:17.993Z,13.90
2018-04-06T08:32:22.036Z,12.07
2018-04-06T08:34:26.056Z,13.43
2018-04-06T08:36:30.114Z,12.37
2018-04-06T08:38:34.124Z,16.50
2018-04-06T08:40:38.134Z,18.67
2018-04-06T08:42:42.164Z,17.10
2018-04-06T08:44:46.196Z,11.20
2018-04-06T08:46:50.229Z,16.07
2018-04-06T08:48:54.254Z,13.83
2018-04-06T08:50:58.308Z,15.87
2018-04-06T08:53:02.342Z,10.30
2018-04-06T08:55:06.344Z,13.50
2018-04-06T08:57:10.385Z,15.30
2018-04-06T08:59:14.421Z,13.00
2018-04-06T09:01:18.484Z,14.13
2018-04-06T09:03:22.513Z,11.77
2018-04-06T09:05:26.543Z,13.53
2018-04-06T09:07:30.563Z,13.53
2018-04-06T09:09:34.566Z,11.60
2018-04-06T09:11:38.582Z,13.60
2018-04-06T09:13:42.652Z,15.40
2018-04-06T09:15:46.691Z,16.87
2018-04-06T09:17:50.721Z,10.90
2018-04-06T09:19:54.767Z,12.27
2018-04-06T09:21:58.801Z,12.13
2018-04-06T09:24:02.841Z,13.90
2018-04-06T09:26:06.892Z,11.53
2018-04-06T09:28:10.955Z,11.10
2018-04-06T09:30:15.005Z,8.83
2018-04-06T09:32:19.029Z,8.50
2018-04-06T09:34:23.061Z,11.53
2018-04-06T09:36:27.053Z,16.70
2018-04-06T09:38:31.113Z,8.93
2018-04-06T09:40:35.129Z,15.63
2018-04-06T09:42:39.148Z,11.77
2018-04-06T09:44:43.193Z,9.10
2018-04-06T09:46:47.202Z,14.03
2018-04-06T09:48:51.224Z,8.67
2018-04-06T09:50:55.222Z,9.30
2018-04-06T09:52:59.235Z,7.53
2018-04-06T09:55:03.246Z,7.60
2018-04-06T09:57:07.244Z,7.97
2018-04-06T09:59:11.263Z,11.17
2018-04-06T10:01:15.288Z,8.00
2018-04-06T10:03:19.280Z,8.00
2018-04-06T10:05:23.300Z,7.23
2018-04-06T10:07:27.299Z,6.43
2018-04-06T10:09:31.322Z,8.00
2018-04-06T10:11:35.325Z,11.30
2018-04-06T10:13:39.326Z,9.03
2018-04-06T10:15:43.353Z,13.33
2018-04-06T10:17:47.357Z,7.17
2018-04-06T10:19:51.375Z,8.73
2018-04-06T10:21:55.379Z,14.83
2018-04-06T10:23:59.404Z,9.83
2018-04-06T10:26:03.474Z,6.40
2018-04-06T10:28:07.525Z,6.57
2018-04-06T10:30:11.539Z,7.90
2018-04-06T10:32:15.531Z,8.70
2018-04-06T10:34:19.523Z,5.13
2018-04-06T10:36:23.562Z,4.93
2018-04-06T10:38:27.560Z,6.53
2018-04-06T10:40:31.562Z,5.90
2018-04-06T10:42:35.626Z,6.90
2018-04-06T10:44:39.627Z,8.30
2018-04-06T10:46:43.679Z,9.40
2018-04-06T10:48:47.666Z,8.70
2018-04-06T10:50:51.667Z,7.27
2018-04-06T10:52:55.678Z,7.47
2018-04-06T10:54:59.684Z,6.90
2018-04-06T10:57:03.711Z,7.97
2018-04-06T10:59:07.702Z,7.00
2018-04-06T11:01:11.806Z,8.17
2018-04-06T11:03:15.824Z,8.07
2018-04-06T11:05:19.843Z,12.10
2018-04-06T11:07:23.867Z,7.87
2018-04-06T11:09:28.073Z,8.53
2018-04-06T11:11:32.103Z,6.03
2018-04-06T11:13:36.102Z,7.20
2018-04-06T11:15:40.104Z,5.90
2018-04-06T11:17:44.118Z,7.97
2018-04-06T11:19:48.123Z,5.63
2018-04-06T11:21:52.153Z,4.80
2018-04-06T11:23:56.160Z,8.00
2018-04-06T11:26:00.159Z,4.13
2018-04-06T11:28:04.189Z,5.33
2018-04-06T11:30:08.191Z,6.10
2018-04-06T11:32:12.216Z,5.40
2018-04-06T11:34:16.224Z,6.53
2018-04-06T11:36:20.275Z,7.10
2018-04-06T11:38:24.295Z,8.47
2018-04-06T11:40:28.294Z,5.53
2018-04-06T11:42:32.315Z,10.90
2018-04-06T11:44:36.315Z,7.50
2018-04-06T11:46:40.327Z,4.17
2018-04-06T11:48:44.324Z,8.50
2018-04-06T11:50:48.338Z,6.10
2018-04-06T11:52:52.368Z,4.37
2018-04-06T11:54:56.370Z,7.63
2018-04-06T11:57:00.405Z,5.10
2018-04-06T11:59:04.399Z,6.83
2018-04-06T12:01:08.431Z,4.30
2018-04-06T12:03:12.471Z,10.77
2018-04-06T12:05:16.479Z,6.17
2018-04-06T12:07:20.550Z,7.03
2018-04-06T12:09:24.551Z,6.63
2018-04-06T12:11:28.557Z,3.57
2018-04-06T12:13:32.566Z,7.80
2018-04-06T12:15:36.567Z,7.17
2018-04-06T12:17:40.590Z,7.13
2018-04-06T12:19:44.591Z,7.23
2018-04-06T12:21:48.582Z,8.40
2018-04-06T12:23:52.656Z,3.30
2018-04-06T12:25:56.656Z,8.23
2018-04-06T12:28:00.706Z,7.83
2018-04-06T12:30:04.717Z,4.90
2018-04-06T12:32:08.734Z,10.07
2018-04-06T12:34:12.759Z,4.70
2018-04-06T12:36:16.759Z,3.63
2018-04-06T12:38:20.759Z,6.97
2018-04-06T12:40:24.791Z,3.17
2018-04-06T12:42:28.787Z,4.23
2018-04-06T12:44:32.821Z,5.93
2018-04-06T12:46:36.828Z,4.13
2018-04-06T12:48:40.851Z,6.93
2018-04-06T12:50:44.873Z,3.90
2018-04-06T12:52:48.878Z,6.07
2018-04-06T12:54:52.895Z,7.47
2018-04-06T12:56:56.920Z,4.50
2018-04-06T12:59:00.909Z,4.93
2018-04-06T13:01:04.926Z,9.17
2018-04-06T13:03:08.921Z,4.97
2018-04-06T13:05:12.944Z,4.60
2018-04-06T13:07:16.944Z,5.47
2018-04-06T13:09:20.979Z,5.93
2018-04-06T13:11:24.983Z,8.57
2018-04-06T13:13:28.977Z,4.73
2018-04-06T13:15:33.024Z,8.90
2018-04-06T13:17:37.063Z,5.70
2018-04-06T13:19:41.052Z,9.60
2018-04-06T13:21:45.091Z,4.90
2018-04-06T13:23:50.163Z,7.20
2018-04-06T13:25:54.199Z,7.20
2018-04-06T13:27:58.203Z,3.37
2018-04-06T13:30:02.212Z,4.87
2018-04-06T13:32:06.351Z,6.87
2018-04-06T13:34:10.367Z,4.30
2018-04-06T13:36:14.435Z,8.17
2018-04-06T13:38:18.444Z,6.30
2018-04-06T13:40:22.451Z,6.63
2018-04-06T13:42:26.480Z,5.53
2018-04-06T13:44:30.477Z,9.90
2018-04-06T13:46:34.506Z,3.17
2018-04-06T13:48:38.514Z,3.47
2018-04-06T13:50:42.506Z,3.53
2018-04-06T13:52:46.548Z,7.03
2018-04-06T13:54:50.553Z,3.70
2018-04-06T13:56:54.567Z,7.87
2018-04-06T13:58:58.588Z,7.90
2018-04-06T14:01:02.676Z,4.10
2018-04-06T14:03:06.629Z,2.23
2018-04-06T14:05:10.651Z,4.60
2018-04-06T14:07:14.671Z,8.90
2018-04-06T14:09:18.671Z,3.80
2018-04-06T14:11:22.670Z,4.80
2018-04-06T14:13:26.697Z,8.60
2018-04-06T14:15:30.707Z,4.60
2018-04-06T14:17:34.740Z,6.30
2018-04-06T14:19:38.748Z,4.27
2018-04-06T14:21:42.745Z,6.40
2018-04-06T14:23:47.951Z,6.27
2018-04-06T14:25:51.957Z,5.23
2018-04-06T14:27:55.999Z,7.23
2018-04-06T14:29:59.996Z,5.43
2018-04-06T14:32:03.998Z,10.60
2018-04-06T14:34:08.019Z,4.30
2018-04-06T14:36:12.023Z,6.90
2018-04-06T14:38:16.051Z,9.10
2018-04-06T14:40:20.051Z,8.60
2018-04-06T14:42:24.048Z,6.37
2018-04-06T14:44:28.674Z,4.90
2018-04-06T14:46:32.732Z,4.30
2018-04-06T14:48:36.762Z,7.37
2018-04-06T14:50:40.759Z,2.80
2018-04-06T14:52:44.756Z,4.67
2018-04-06T14:54:48.777Z,5.63
2018-04-06T14:56:52.766Z,3.13
2018-04-06T14:58:56.810Z,4.70
2018-04-06T15:01:00.852Z,6.50
2018-04-06T15:03:04.850Z,15.47
2018-04-06T15:05:08.873Z,11.43
2018-04-06T15:07:12.891Z,6.53
2018-04-06T15:09:16.914Z,3.30
2018-04-06T15:11:20.945Z,3.30
2018-04-06T15:13:24.951Z,4.50
2018-04-06T15:15:28.963Z,8.10
2018-04-06T15:17:32.990Z,11.53
2018-04-06T15:19:37.008Z,5.13
2018-04-06T15:21:41.054Z,6.30
2018-04-06T15:23:45.088Z,6.50
2018-04-06T15:25:49.130Z,9.83
2018-04-06T15:27:53.139Z,2.80
2018-04-06T15:29:57.204Z,4.33
2018-04-06T15:32:01.250Z,5.40
2018-04-06T15:34:05.244Z,7.20
2018-04-06T15:36:09.294Z,7.40
2018-04-06T15:38:13.309Z,4.00
2018-04-06T15:40:17.322Z,3.90
2018-04-06T15:42:21.371Z,12.27
2018-04-06T15:44:25.387Z,3.27
2018-04-06T15:46:29.420Z,5.03
2018-04-06T15:48:33.448Z,3.40
2018-04-06T15:50:37.462Z,5.40
2018-04-06T15:52:41.513Z,8.00
2018-04-06T15:54:45.543Z,5.60
2018-04-06T15:56:49.598Z,7.73
2018-04-06T15:58:53.628Z,2.63
2018-04-06T16:00:57.642Z,5.00
2018-04-06T16:03:01.680Z,4.87
2018-04-06T16:05:05.691Z,6.50
2018-04-06T16:07:09.738Z,13.33
2018-04-06T16:09:13.738Z,4.87
2018-04-06T16:11:17.762Z,4.13
2018-04-06T16:13:21.813Z,4.63
2018-04-06T16:15:25.829Z,5.30
2018-04-06T16:17:29.873Z,5.23
2018-04-06T16:19:33.907Z,12.27
2018-04-06T16:21:37.965Z,2.90
2018-04-06T16:23:42.010Z,4.77
2018-04-06T16:25:46.038Z,4.10
2018-04-06T16:27:50.087Z,3.70
2018-04-06T16:29:54.097Z,6.93
2018-04-06T16:31:58.123Z,2.70
2018-04-06T16:34:02.158Z,2.73
2018-04-06T16:36:06.182Z,6.10
2018-04-06T16:38:10.213Z,7.00
2018-04-06T16:40:14.211Z,11.90
2018-04-06T16:42:18.217Z,6.53
2018-04-06T16:44:22.241Z,4.90
2018-04-06T16:46:26.458Z,4.27
2018-04-06T16:48:30.545Z,2.37
2018-04-06T16:50:34.635Z,8.93
2018-04-06T16:52:38.670Z,4.93
2018-04-06T16:54:42.691Z,6.83
2018-04-06T16:56:46.721Z,8.00
2018-04-06T16:58:50.746Z,5.90
2018-04-06T17:00:54.785Z,5.03
2018-04-06T17:02:58.793Z,5.23
2018-04-06T17:05:02.829Z,4.40
2018-04-06T17:07:06.872Z,5.13
2018-04-06T17:09:10.891Z,3.53
2018-04-06T17:11:14.945Z,5.10
2018-04-06T17:13:18.956Z,2.67
2018-04-06T17:15:23.012Z,7.40
2018-04-06T17:17:27.024Z,4.50
2018-04-06T17:19:31.124Z,5.57
2018-04-06T17:21:35.155Z,8.67
2018-04-06T17:23:39.155Z,3.77
2018-04-06T17:25:43.172Z,15.00
2018-04-06T17:27:47.177Z,16.03
2018-04-06T17:29:51.193Z,8.97
2018-04-06T17:31:55.226Z,6.80
2018-04-06T17:33:59.235Z,4.77
2018-04-06T17:36:03.300Z,4.03
2018-04-06T17:38:07.324Z,6.03
2018-04-06T17:40:11.337Z,10.63
2018-04-06T17:42:15.368Z,6.13
2018-04-06T17:44:19.368Z,9.93
2018-04-06T17:46:23.405Z,5.97
2018-04-06T17:48:27.417Z,5.83
2018-04-06T17:50:31.449Z,6.10
2018-04-06T17:52:35.478Z,7.03
2018-04-06T17:54:39.494Z,10.83
2018-04-06T17:56:43.568Z,8.20
2018-04-06T17:58:47.592Z,10.23
2018-04-06T18:00:51.579Z,5.43
2018-04-06T18:02:55.626Z,9.90
2018-04-06T18:04:59.627Z,4.33
2018-04-06T18:07:03.685Z,6.40
2018-04-06T18:09:07.721Z,4.67
2018-04-06T18:11:11.748Z,4.50
2018-04-06T18:13:15.784Z,4.50
2018-04-06T18:15:19.799Z,11.33
2018-04-06T18:17:23.852Z,3.63
2018-04-06T18:19:27.860Z,8.37
2018-04-06T18:21:31.892Z,5.17
2018-04-06T18:23:35.965Z,10.43
2018-04-06T18:25:39.971Z,5.17
2018-04-06T18:27:44.000Z,6.10
2018-04-06T18:29:48.032Z,8.20
2018-04-06T18:31:52.052Z,5.43
2018-04-06T18:33:56.085Z,3.97
2018-04-06T18:36:00.116Z,8.10
2018-04-06T18:38:04.150Z,5.70
2018-04-06T18:40:08.184Z,8.80
2018-04-06T18:42:12.214Z,6.73
2018-04-06T18:44:16.262Z,9.13
2018-04-06T18:46:20.278Z,6.30
2018-04-06T18:48:24.300Z,8.20
2018-04-06T18:50:28.353Z,7.10
2018-04-06T18:52:32.386Z,3.13
2018-04-06T18:54:36.423Z,3.60
2018-04-06T18:56:40.434Z,3.53
2018-04-06T18:58:44.465Z,5.30
2018-04-06T19:00:48.531Z,6.33
2018-04-06T19:02:52.567Z,4.50
2018-04-06T19:04:56.618Z,3.33
2018-04-06T19:07:00.637Z,5.13
2018-04-06T19:09:05.604Z,3.60
2018-04-06T19:11:09.651Z,7.87
2018-04-06T19:13:13.654Z,8.10
2018-04-06T19:15:17.715Z,4.00
2018-04-06T19:17:21.737Z,5.00
2018-04-06T19:19:25.800Z,3.20
2018-04-06T19:21:29.842Z,10.60
2018-04-06T19:23:33.879Z,4.63
2018-04-06T19:25:37.918Z,5.60
2018-04-06T19:27:41.938Z,3.93
2018-04-06T19:29:45.939Z,5.43
2018-04-06T19:31:49.996Z,3.63
2018-04-06T19:33:54.029Z,7.17
2018-04-06T19:35:58.089Z,4.23
2018-04-06T19:38:02.105Z,9.00
2018-04-06T19:40:06.112Z,5.53
2018-04-06T19:42:10.171Z,4.77
2018-04-06T19:44:14.207Z,10.10
2018-04-06T19:46:18.249Z,4.63
2018-04-06T19:48:22.267Z,4.40
2018-04-06T19:50:26.281Z,5.53
2018-04-06T19:52:30.335Z,3.03
2018-04-06T19:54:34.351Z,4.17
2018-04-06T19:56:38.465Z,3.00
2018-04-06T19:58:42.497Z,5.37
2018-04-06T20:00:46.535Z,5.40
2018-04-06T20:02:50.571Z,5.87
2018-04-06T20:04:54.598Z,5.63
2018-04-06T20:06:58.637Z,5.07
2018-04-06T20:09:02.665Z,7.43
2018-04-06T20:11:06.696Z,8.83
2018-04-06T20:13:10.730Z,7.40
2018-04-06T20:15:14.732Z,3.20
2018-04-06T20:17:18.767Z,3.00
2018-04-06T20:19:22.791Z,6.70
2018-04-06T20:21:26.815Z,6.60
2018-04-06T20:23:30.834Z,6.40
2018-04-06T20:25:34.852Z,3.70
2018-04-06T20:27:38.896Z,5.40
2018-04-06T20:29:42.908Z,6.17
2018-04-06T20:31:46.930Z,5.00
2018-04-06T20:33:50.951Z,6.50
2018-04-06T20:35:54.962Z,5.10
2018-04-06T20:37:58.987Z,3.13
2018-04-06T20:40:03.053Z,4.97
2018-04-06T20:42:07.063Z,6.87
2018-04-06T20:44:11.096Z,12.70
2018-04-06T20:46:15.200Z,3.80
2018-04-06T20:48:19.203Z,4.17
2018-04-06T20:50:23.280Z,4.33
2018-04-06T20:52:27.295Z,9.13
2018-04-06T20:54:31.334Z,5.53
2018-04-06T20:56:35.351Z,4.67
2018-04-06T20:58:39.366Z,7.30
2018-04-06T21:00:43.397Z,4.93
2018-04-06T21:02:47.440Z,9.00
2018-04-06T21:04:51.482Z,4.13
2018-04-06T21:06:55.506Z,13.60
2018-04-06T21:08:59.523Z,4.30
2018-04-06T21:11:03.723Z,7.40
2018-04-06T21:13:07.738Z,7.90
2018-04-06T21:15:11.788Z,3.57
2018-04-06T21:17:15.805Z,5.83
2018-04-06T21:19:19.825Z,5.57
2018-04-06T21:21:23.866Z,3.80
2018-04-06T21:23:27.877Z,4.27
2018-04-06T21:25:31.914Z,3.27
2018-04-06T21:27:35.925Z,6.80
2018-04-06T21:29:39.973Z,3.83
2018-04-06T21:31:44.009Z,8.70
2018-04-06T21:33:48.083Z,4.53
2018-04-06T21:35:52.129Z,4.13
2018-04-06T21:37:56.178Z,9.30
2018-04-06T21:40:00.216Z,4.60
2018-04-06T21:42:04.240Z,3.80
2018-04-06T21:44:08.304Z,7.10
2018-04-06T21:46:12.358Z,4.93
2018-04-06T21:48:16.394Z,4.93
2018-04-06T21:50:20.419Z,5.53
2018-04-06T21:52:24.444Z,5.40
2018-04-06T21:54:28.453Z,3.20
2018-04-06T21:56:32.501Z,4.33
2018-04-06T21:58:36.513Z,12.90
2018-04-06T22:00:40.524Z,6.63
2018-04-06T22:02:44.573Z,4.03
2018-04-06T22:04:48.602Z,3.60
2018-04-06T22:06:52.643Z,7.83
2018-04-06T22:08:56.653Z,5.23
2018-04-06T22:11:00.672Z,7.93
2018-04-06T22:13:04.839Z,4.80
2018-04-06T22:15:08.875Z,3.80
2018-04-06T22:17:12.904Z,7.57
2018-04-06T22:19:16.899Z,3.60
2018-04-06T22:21:20.968Z,3.90
2018-04-06T22:23:25.024Z,5.30
2018-04-06T22:25:29.055Z,3.40
2018-04-06T22:27:33.117Z,5.23
2018-04-06T22:29:37.171Z,3.80
2018-04-06T22:31:41.201Z,4.50
2018-04-06T22:33:45.287Z,4.50
2018-04-06T22:35:49.313Z,9.63
2018-04-06T22:37:53.463Z,5.47
2018-04-06T22:39:57.537Z,8.60
2018-04-06T22:42:01.647Z,4.20
2018-04-06T22:44:05.710Z,8.63
2018-04-06T22:46:09.738Z,5.10
2018-04-06T22:48:13.764Z,5.77
2018-04-06T22:50:17.835Z,7.93
2018-04-06T22:52:21.867Z,4.30
2018-04-06T22:54:25.988Z,5.27
2018-04-06T22:56:30.026Z,5.60
2018-04-06T22:58:34.055Z,6.43
2018-04-06T23:00:38.112Z,5.70
2018-04-06T23:02:42.167Z,4.10
2018-04-06T23:04:46.271Z,4.13
2018-04-06T23:06:50.295Z,5.00
2018-04-06T23:08:54.357Z,4.10
2018-04-06T23:10:58.387Z,6.53
2018-04-06T23:13:02.407Z,5.43
2018-04-06T23:15:06.468Z,5.73
2018-04-06T23:17:10.517Z,5.60
2018-04-06T23:19:14.556Z,6.33
2018-04-06T23:21:18.618Z,7.73
2018-04-06T23:23:22.644Z,7.00
2018-04-06T23:25:26.702Z,7.40
2018-04-06T23:27:30.729Z,6.40
2018-04-06T23:29:34.759Z,6.30
2018-04-06T23:31:38.811Z,12.43
2018-04-06T23:33:42.848Z,4.17
2018-04-06T23:35:46.897Z,6.50
2018-04-06T23:37:50.920Z,9.03
2018-04-06T23:39:54.941Z,6.10
2018-04-06T23:41:58.983Z,4.17
2018-04-06T23:44:03.015Z,7.30
2018-04-06T23:46:07.077Z,4.00
2018-04-06T23:48:11.106Z,3.90
2018-04-06T23:50:15.140Z,7.33
2018-04-06T23:52:19.183Z,6.47
2018-04-06T23:54:23.223Z,7.83
2018-04-06T23:56:27.281Z,10.43
2018-04-06T23:58:31.310Z,6.60
